sensor_id;sensor_type;location;lat;lon;timestamp;pressure;altitude;pressure_sealevel;temperature;humidity
8069;BME280;4077;43.702;24.896;2023-07-20T00:00:39;98943.84;;;21.05;100.00
8069;BME280;4077;43.702;24.896;2023-07-20T00:03:14;98879.41;;;20.98;100.00
8069;BME280;4077;43.702;24.896;2023-07-20T00:05:45;98859.53;;;20.92;100.00
8069;BME280;4077;43.702;24.896;2023-07-20T00:08:11;98783.47;;;20.70;100.00
8069;BME280;4077;43.702;24.896;2023-07-20T00:10:36;98670.59;;;20.53;100.00
8069;BME280;4077;43.702;24.896;2023-07-20T00:13:02;98639.13;;;20.53;100.00
8069;BME280;4077;43.702;24.896;2023-07-20T00:15:27;98690.50;;;20.57;100.00
8069;BME280;4077;43.702;24.896;2023-07-20T00:17:53;98769.50;;;20.70;100.00
8069;BME280;4077;43.702;24.896;2023-07-20T00:20:18;98829.25;;;20.40;100.00
8069;BME280;4077;43.702;24.896;2023-07-20T00:22:44;98832.56;;;20.45;100.00
8069;BME280;4077;43.702;24.896;2023-07-20T00:25:09;98845.28;;;20.56;100.00
8069;BME280;4077;43.702;24.896;2023-07-20T00:27:37;98879.78;;;20.89;100.00
8069;BME280;4077;43.702;24.896;2023-07-20T00:30:03;98868.94;;;20.54;100.00
8069;BME280;4077;43.702;24.896;2023-07-20T00:32:29;98884.66;;;20.54;100.00
8069;BME280;4077;43.702;24.896;2023-07-20T00:34:55;98861.25;;;20.49;100.00
8069;BME280;4077;43.702;24.896;2023-07-20T00:37:20;98855.28;;;20.46;100.00
8069;BME280;4077;43.702;24.896;2023-07-20T00:39:46;98850.03;;;20.46;100.00
8069;BME280;4077;43.702;24.896;2023-07-20T00:42:11;98876.44;;;20.40;100.00
8069;BME280;4077;43.702;24.896;2023-07-20T00:44:36;98874.97;;;20.33;100.00
8069;BME280;4077;43.702;24.896;2023-07-20T00:47:02;98877.47;;;20.36;100.00
8069;BME280;4077;43.702;24.896;2023-07-20T00:49:28;98881.06;;;20.33;100.00
8069;BME280;4077;43.702;24.896;2023-07-20T00:51:53;98888.41;;;20.23;100.00
8069;BME280;4077;43.702;24.896;2023-07-20T00:54:19;98878.16;;;20.17;100.00
8069;BME280;4077;43.702;24.896;2023-07-20T00:56:44;98854.81;;;20.11;100.00
8069;BME280;4077;43.702;24.896;2023-07-20T00:59:11;98867.00;;;20.12;100.00
8069;BME280;4077;43.702;24.896;2023-07-20T01:01:36;98860.06;;;20.11;100.00
8069;BME280;4077;43.702;24.896;2023-07-20T01:04:02;98860.16;;;20.08;100.00
8069;BME280;4077;43.702;24.896;2023-07-20T01:12:08;98866.16;;;20.12;100.00
8069;BME280;4077;43.702;24.896;2023-07-20T01:14:35;98864.47;;;20.11;100.00
8069;BME280;4077;43.702;24.896;2023-07-20T01:17:02;98875.09;;;20.06;100.00
8069;BME280;4077;43.702;24.896;2023-07-20T01:19:27;98887.16;;;20.10;100.00
8069;BME280;4077;43.702;24.896;2023-07-20T01:30:15;98882.59;;;20.15;100.00
8069;BME280;4077;43.702;24.896;2023-07-20T01:32:42;98882.03;;;20.07;100.00
8069;BME280;4077;43.702;24.896;2023-07-20T01:35:11;98888.75;;;20.14;100.00
8069;BME280;4077;43.702;24.896;2023-07-20T01:37:41;98888.88;;;20.11;100.00
8069;BME280;4077;43.702;24.896;2023-07-20T01:40:09;98877.28;;;20.18;100.00
8069;BME280;4077;43.702;24.896;2023-07-20T01:42:35;98874.88;;;20.12;100.00
8069;BME280;4077;43.702;24.896;2023-07-20T01:45:00;98870.78;;;20.05;100.00
8069;BME280;4077;43.702;24.896;2023-07-20T01:47:26;98858.81;;;19.98;100.00
8069;BME280;4077;43.702;24.896;2023-07-20T01:49:51;98858.81;;;19.98;100.00
8069;BME280;4077;43.702;24.896;2023-07-20T01:52:16;98857.09;;;19.97;100.00
8069;BME280;4077;43.702;24.896;2023-07-20T01:54:42;98846.63;;;19.97;100.00
8069;BME280;4077;43.702;24.896;2023-07-20T01:57:07;98836.25;;;19.94;100.00
8069;BME280;4077;43.702;24.896;2023-07-20T01:59:33;98829.09;;;19.99;100.00
8069;BME280;4077;43.702;24.896;2023-07-20T02:01:58;98830.78;;;20.00;100.00
8069;BME280;4077;43.702;24.896;2023-07-20T02:04:24;98834.94;;;20.06;100.00
8069;BME280;4077;43.702;24.896;2023-07-20T02:06:49;98833.72;;;20.14;100.00
8069;BME280;4077;43.702;24.896;2023-07-20T02:09:15;98849.22;;;20.20;100.00
8069;BME280;4077;43.702;24.896;2023-07-20T02:11:40;98857.88;;;20.22;100.00
8069;BME280;4077;43.702;24.896;2023-07-20T02:14:06;98877.28;;;20.18;100.00
8069;BME280;4077;43.702;24.896;2023-07-20T02:16:31;98875.00;;;20.31;100.00
8069;BME280;4077;43.702;24.896;2023-07-20T02:18:57;98881.50;;;20.46;100.00
8069;BME280;4077;43.702;24.896;2023-07-20T02:21:23;98874.19;;;20.54;100.00
8069;BME280;4077;43.702;24.896;2023-07-20T02:23:49;98883.50;;;20.61;100.00
8069;BME280;4077;43.702;24.896;2023-07-20T02:26:14;98878.13;;;20.64;100.00
8069;BME280;4077;43.702;24.896;2023-07-20T02:28:40;98871.88;;;20.68;100.00
8069;BME280;4077;43.702;24.896;2023-07-20T02:31:06;98868.72;;;20.59;100.00
8069;BME280;4077;43.702;24.896;2023-07-20T02:33:32;98873.94;;;20.60;100.00
8069;BME280;4077;43.702;24.896;2023-07-20T02:35:57;98878.28;;;20.61;100.00
8069;BME280;4077;43.702;24.896;2023-07-20T02:38:23;98881.00;;;20.58;100.00
8069;BME280;4077;43.702;24.896;2023-07-20T02:40:48;98883.81;;;20.54;100.00
8069;BME280;4077;43.702;24.896;2023-07-20T02:43:14;98887.16;;;20.57;100.00
8069;BME280;4077;43.702;24.896;2023-07-20T02:45:40;98889.53;;;20.63;100.00
8069;BME280;4077;43.702;24.896;2023-07-20T02:48:05;98892.06;;;20.66;100.00
8069;BME280;4077;43.702;24.896;2023-07-20T02:50:33;98906.50;;;20.76;100.00
8069;BME280;4077;43.702;24.896;2023-07-20T02:53:00;98911.66;;;20.80;100.00
8069;BME280;4077;43.702;24.896;2023-07-20T02:55:25;98899.66;;;20.72;100.00
8069;BME280;4077;43.702;24.896;2023-07-20T02:57:50;98910.28;;;20.69;100.00
8069;BME280;4077;43.702;24.896;2023-07-20T03:00:16;98905.19;;;20.66;100.00
8069;BME280;4077;43.702;24.896;2023-07-20T03:02:43;98902.41;;;20.69;100.00
8069;BME280;4077;43.702;24.896;2023-07-20T03:05:08;98890.16;;;20.70;100.00
8069;BME280;4077;43.702;24.896;2023-07-20T03:07:34;98880.91;;;20.61;100.00
8069;BME280;4077;43.702;24.896;2023-07-20T03:09:59;98905.19;;;20.66;100.00
8069;BME280;4077;43.702;24.896;2023-07-20T03:12:25;98899.19;;;20.63;100.00
8069;BME280;4077;43.702;24.896;2023-07-20T03:14:51;98899.13;;;20.64;100.00
8069;BME280;4077;43.702;24.896;2023-07-20T03:17:16;98898.34;;;20.62;100.00
8069;BME280;4077;43.702;24.896;2023-07-20T03:19:41;98890.41;;;20.64;100.00
8069;BME280;4077;43.702;24.896;2023-07-20T03:22:08;98874.91;;;20.58;100.00
8069;BME280;4077;43.702;24.896;2023-07-20T03:24:33;98862.78;;;20.55;100.00
8069;BME280;4077;43.702;24.896;2023-07-20T03:26:59;98853.31;;;20.51;100.00
8069;BME280;4077;43.702;24.896;2023-07-20T03:29:25;98849.66;;;20.55;100.00
8069;BME280;4077;43.702;24.896;2023-07-20T03:31:50;98843.41;;;20.59;100.00
8069;BME280;4077;43.702;24.896;2023-07-20T03:34:15;98823.38;;;20.57;100.00
8069;BME280;4077;43.702;24.896;2023-07-20T03:36:41;98821.34;;;20.63;100.00
8069;BME280;4077;43.702;24.896;2023-07-20T03:39:06;98816.13;;;20.63;100.00
8069;BME280;4077;43.702;24.896;2023-07-20T03:41:32;98799.69;;;20.58;100.00
8069;BME280;4077;43.702;24.896;2023-07-20T03:43:57;98814.28;;;20.65;100.00
8069;BME280;4077;43.702;24.896;2023-07-20T03:46:22;98828.84;;;20.72;100.00
8069;BME280;4077;43.702;24.896;2023-07-20T03:48:48;98832.97;;;20.80;100.00
8069;BME280;4077;43.702;24.896;2023-07-20T03:51:13;98834.91;;;20.74;100.00
8069;BME280;4077;43.702;24.896;2023-07-20T03:53:39;98846.31;;;20.73;100.00
8069;BME280;4077;43.702;24.896;2023-07-20T03:56:05;98857.84;;;20.69;100.00
8069;BME280;4077;43.702;24.896;2023-07-20T03:58:30;98855.34;;;20.66;100.00
8069;BME280;4077;43.702;24.896;2023-07-20T04:00:57;98854.66;;;20.61;100.00
8069;BME280;4077;43.702;24.896;2023-07-20T04:03:23;98861.84;;;20.56;100.00
8069;BME280;4077;43.702;24.896;2023-07-20T04:05:53;98875.72;;;20.60;100.00
8069;BME280;4077;43.702;24.896;2023-07-20T04:08:18;98888.75;;;20.61;100.00
8069;BME280;4077;43.702;24.896;2023-07-20T04:10:44;98882.59;;;20.62;100.00
8069;BME280;4077;43.702;24.896;2023-07-20T04:13:10;98897.34;;;20.65;100.00
8069;BME280;4077;43.702;24.896;2023-07-20T04:15:36;98898.16;;;20.67;100.00
8069;BME280;4077;43.702;24.896;2023-07-20T04:18:01;98897.47;;;20.62;100.00
8069;BME280;4077;43.702;24.896;2023-07-20T04:20:26;98902.03;;;20.57;100.00
8069;BME280;4077;43.702;24.896;2023-07-20T04:22:52;98904.97;;;20.49;100.00
8069;BME280;4077;43.702;24.896;2023-07-20T04:25:18;98907.41;;;20.54;100.00
8069;BME280;4077;43.702;24.896;2023-07-20T04:27:43;98908.34;;;20.53;100.00
8069;BME280;4077;43.702;24.896;2023-07-20T04:30:10;98918.25;;;20.43;100.00
8069;BME280;4077;43.702;24.896;2023-07-20T04:32:37;98923.31;;;20.49;100.00
8069;BME280;4077;43.702;24.896;2023-07-20T04:35:06;98933.72;;;20.52;100.00
8069;BME280;4077;43.702;24.896;2023-07-20T04:37:31;98942.13;;;20.60;100.00
8069;BME280;4077;43.702;24.896;2023-07-20T04:39:56;98952.38;;;20.66;100.00
8069;BME280;4077;43.702;24.896;2023-07-20T04:42:22;98952.94;;;20.74;100.00
8069;BME280;4077;43.702;24.896;2023-07-20T04:44:47;98952.63;;;20.82;100.00
8069;BME280;4077;43.702;24.896;2023-07-20T04:47:13;98946.16;;;20.91;100.00
8069;BME280;4077;43.702;24.896;2023-07-20T04:49:38;98946.84;;;20.96;100.00
8069;BME280;4077;43.702;24.896;2023-07-20T04:52:04;98938.84;;;20.99;100.00
8069;BME280;4077;43.702;24.896;2023-07-20T04:54:30;98937.88;;;21.01;100.00
8069;BME280;4077;43.702;24.896;2023-07-20T04:56:55;98951.56;;;21.10;100.00
8069;BME280;4077;43.702;24.896;2023-07-20T04:59:21;98938.59;;;21.05;100.00
8069;BME280;4077;43.702;24.896;2023-07-20T05:01:46;98942.75;;;21.11;100.00
8069;BME280;4077;43.702;24.896;2023-07-20T05:04:12;98935.56;;;21.16;100.00
8069;BME280;4077;43.702;24.896;2023-07-20T05:06:37;98931.59;;;21.06;100.00
8069;BME280;4077;43.702;24.896;2023-07-20T05:09:04;98922.63;;;21.11;100.00
8069;BME280;4077;43.702;24.896;2023-07-20T05:11:34;98910.34;;;21.12;100.00
8069;BME280;4077;43.702;24.896;2023-07-20T05:14:00;98908.56;;;21.12;100.00
8069;BME280;4077;43.702;24.896;2023-07-20T05:16:25;98911.47;;;21.28;100.00
8069;BME280;4077;43.702;24.896;2023-07-20T05:18:51;98910.03;;;21.41;100.00
8069;BME280;4077;43.702;24.896;2023-07-20T05:21:16;98909.50;;;21.53;100.00
8069;BME280;4077;43.702;24.896;2023-07-20T05:23:42;98914.13;;;21.69;100.00
8069;BME280;4077;43.702;24.896;2023-07-20T05:26:08;98914.84;;;21.72;100.00
8069;BME280;4077;43.702;24.896;2023-07-20T05:28:33;98922.84;;;21.90;100.00
8069;BME280;4077;43.702;24.896;2023-07-20T05:30:58;98912.97;;;21.95;100.00
8069;BME280;4077;43.702;24.896;2023-07-20T05:33:24;98908.22;;;22.03;100.00
8069;BME280;4077;43.702;24.896;2023-07-20T05:35:50;98907.09;;;22.10;100.00
8069;BME280;4077;43.702;24.896;2023-07-20T05:38:15;98907.31;;;22.24;100.00
8069;BME280;4077;43.702;24.896;2023-07-20T05:40:41;98899.66;;;22.38;100.00
8069;BME280;4077;43.702;24.896;2023-07-20T05:43:10;98900.13;;;22.47;100.00
8069;BME280;4077;43.702;24.896;2023-07-20T05:45:42;98903.91;;;22.60;100.00
8069;BME280;4077;43.702;24.896;2023-07-20T05:48:08;98906.00;;;22.71;100.00
8069;BME280;4077;43.702;24.896;2023-07-20T05:50:36;98909.59;;;22.88;100.00
8069;BME280;4077;43.702;24.896;2023-07-20T05:53:01;98910.53;;;23.05;100.00
8069;BME280;4077;43.702;24.896;2023-07-20T05:55:27;98922.03;;;23.21;100.00
8069;BME280;4077;43.702;24.896;2023-07-20T05:57:52;98913.00;;;23.27;100.00
8069;BME280;4077;43.702;24.896;2023-07-20T06:00:20;98922.84;;;23.40;100.00
8069;BME280;4077;43.702;24.896;2023-07-20T06:02:54;98927.78;;;23.46;100.00
8069;BME280;4077;43.702;24.896;2023-07-20T06:05:21;98928.56;;;23.48;100.00
8069;BME280;4077;43.702;24.896;2023-07-20T06:07:47;98935.38;;;23.53;100.00
8069;BME280;4077;43.702;24.896;2023-07-20T06:10:12;98935.50;;;23.68;100.00
8069;BME280;4077;43.702;24.896;2023-07-20T06:12:38;98928.59;;;23.66;100.00
8069;BME280;4077;43.702;24.896;2023-07-20T06:15:05;98929.34;;;23.85;100.00
8069;BME280;4077;43.702;24.896;2023-07-20T06:17:31;98930.94;;;24.05;100.00
8069;BME280;4077;43.702;24.896;2023-07-20T06:19:56;98928.78;;;24.29;100.00
8069;BME280;4077;43.702;24.896;2023-07-20T06:22:22;98934.22;;;24.43;100.00
8069;BME280;4077;43.702;24.896;2023-07-20T06:24:47;98921.59;;;24.48;100.00
8069;BME280;4077;43.702;24.896;2023-07-20T06:27:13;98931.06;;;24.68;100.00
8069;BME280;4077;43.702;24.896;2023-07-20T06:29:38;98940.78;;;24.68;100.00
8069;BME280;4077;43.702;24.896;2023-07-20T06:32:05;98949.41;;;24.87;100.00
8069;BME280;4077;43.702;24.896;2023-07-20T06:34:30;98952.88;;;25.03;100.00
8069;BME280;4077;43.702;24.896;2023-07-20T06:36:56;98959.03;;;25.20;100.00
8069;BME280;4077;43.702;24.896;2023-07-20T06:39:21;98962.44;;;25.22;100.00
8069;BME280;4077;43.702;24.896;2023-07-20T06:41:47;98960.03;;;25.33;100.00
8069;BME280;4077;43.702;24.896;2023-07-20T06:44:13;98952.63;;;25.24;100.00
8069;BME280;4077;43.702;24.896;2023-07-20T06:46:38;98959.00;;;25.35;100.00
8069;BME280;4077;43.702;24.896;2023-07-20T06:49:06;98972.75;;;25.56;100.00
8069;BME280;4077;43.702;24.896;2023-07-20T06:51:33;98967.44;;;25.72;100.00
8069;BME280;4077;43.702;24.896;2023-07-20T06:53:58;98972.22;;;25.81;100.00
8069;BME280;4077;43.702;24.896;2023-07-20T06:56:23;98978.16;;;25.85;100.00
8069;BME280;4077;43.702;24.896;2023-07-20T06:58:49;98977.59;;;25.94;100.00
8069;BME280;4077;43.702;24.896;2023-07-20T07:01:14;98970.38;;;26.12;100.00
8069;BME280;4077;43.702;24.896;2023-07-20T07:03:40;98993.44;;;26.38;100.00
8069;BME280;4077;43.702;24.896;2023-07-20T07:06:05;98996.97;;;26.53;100.00
8069;BME280;4077;43.702;24.896;2023-07-20T07:08:31;99003.19;;;26.38;100.00
8069;BME280;4077;43.702;24.896;2023-07-20T07:10:56;99004.28;;;26.19;100.00
8069;BME280;4077;43.702;24.896;2023-07-20T07:13:22;99009.06;;;26.29;100.00
8069;BME280;4077;43.702;24.896;2023-07-20T07:15:48;99009.06;;;26.86;100.00
8069;BME280;4077;43.702;24.896;2023-07-20T07:18:13;99013.75;;;26.95;100.00
8069;BME280;4077;43.702;24.896;2023-07-20T07:20:39;99011.72;;;26.86;100.00
8069;BME280;4077;43.702;24.896;2023-07-20T07:23:04;99022.06;;;27.03;100.00
8069;BME280;4077;43.702;24.896;2023-07-20T07:25:30;99018.97;;;27.11;100.00
8069;BME280;4077;43.702;24.896;2023-07-20T07:27:57;99024.94;;;27.14;100.00
8069;BME280;4077;43.702;24.896;2023-07-20T07:30:22;99016.63;;;27.06;100.00
8069;BME280;4077;43.702;24.896;2023-07-20T07:32:48;99021.06;;;26.91;100.00
8069;BME280;4077;43.702;24.896;2023-07-20T07:35:13;99016.41;;;26.95;100.00
8069;BME280;4077;43.702;24.896;2023-07-20T07:37:39;99008.69;;;27.06;100.00
8069;BME280;4077;43.702;24.896;2023-07-20T07:40:06;99014.47;;;27.40;100.00
8069;BME280;4077;43.702;24.896;2023-07-20T07:42:32;99011.31;;;27.47;100.00
8069;BME280;4077;43.702;24.896;2023-07-20T07:44:57;99013.88;;;27.62;100.00
8069;BME280;4077;43.702;24.896;2023-07-20T07:47:22;99009.53;;;27.88;100.00
8069;BME280;4077;43.702;24.896;2023-07-20T07:49:48;99007.09;;;27.97;100.00
8069;BME280;4077;43.702;24.896;2023-07-20T07:52:14;99007.44;;;28.18;100.00
8069;BME280;4077;43.702;24.896;2023-07-20T07:54:40;99009.28;;;28.30;100.00
8069;BME280;4077;43.702;24.896;2023-07-20T07:57:05;99017.84;;;28.21;100.00
8069;BME280;4077;43.702;24.896;2023-07-20T07:59:31;99033.97;;;28.18;100.00
8069;BME280;4077;43.702;24.896;2023-07-20T08:02:02;99040.84;;;28.35;100.00
8069;BME280;4077;43.702;24.896;2023-07-20T08:04:27;99033.56;;;28.24;100.00
8069;BME280;4077;43.702;24.896;2023-07-20T08:06:53;99024.88;;;28.48;100.00
8069;BME280;4077;43.702;24.896;2023-07-20T08:09:18;99055.91;;;28.73;100.00
8069;BME280;4077;43.702;24.896;2023-07-20T08:11:43;99054.81;;;28.75;100.00
8069;BME280;4077;43.702;24.896;2023-07-20T08:14:09;99054.63;;;28.78;95.72
8069;BME280;4077;43.702;24.896;2023-07-20T08:16:34;99072.47;;;28.76;94.89
8069;BME280;4077;43.702;24.896;2023-07-20T08:19:00;99075.75;;;28.80;95.36
8069;BME280;4077;43.702;24.896;2023-07-20T08:21:25;99085.78;;;28.76;95.52
8069;BME280;4077;43.702;24.896;2023-07-20T08:23:51;99093.63;;;28.91;95.25
8069;BME280;4077;43.702;24.896;2023-07-20T08:26:16;99094.69;;;29.01;93.86
8069;BME280;4077;43.702;24.896;2023-07-20T08:28:44;99096.06;;;28.94;92.63
8069;BME280;4077;43.702;24.896;2023-07-20T08:31:10;99096.81;;;28.96;95.50
8069;BME280;4077;43.702;24.896;2023-07-20T08:33:36;99100.41;;;29.20;93.76
8069;BME280;4077;43.702;24.896;2023-07-20T08:36:01;99103.06;;;29.20;93.73
8069;BME280;4077;43.702;24.896;2023-07-20T08:38:28;99092.56;;;29.06;93.52
8069;BME280;4077;43.702;24.896;2023-07-20T08:40:54;99088.00;;;28.95;95.52
8069;BME280;4077;43.702;24.896;2023-07-20T08:43:22;99075.34;;;28.86;99.84
8069;BME280;4077;43.702;24.896;2023-07-20T08:45:50;99075.78;;;28.93;96.46
8069;BME280;4077;43.702;24.896;2023-07-20T08:48:18;99071.19;;;28.95;96.11
8069;BME280;4077;43.702;24.896;2023-07-20T08:50:45;99055.47;;;29.04;100.00
8069;BME280;4077;43.702;24.896;2023-07-20T08:53:12;99057.81;;;28.96;98.06
8069;BME280;4077;43.702;24.896;2023-07-20T08:55:39;99065.78;;;28.96;99.57
8069;BME280;4077;43.702;24.896;2023-07-20T08:58:08;99066.00;;;28.93;93.81
8069;BME280;4077;43.702;24.896;2023-07-20T09:00:34;99048.66;;;28.87;96.63
8069;BME280;4077;43.702;24.896;2023-07-20T09:03:02;99036.88;;;28.92;91.27
8069;BME280;4077;43.702;24.896;2023-07-20T09:05:28;99027.19;;;29.03;93.39
8069;BME280;4077;43.702;24.896;2023-07-20T09:07:53;99025.25;;;29.05;88.00
8069;BME280;4077;43.702;24.896;2023-07-20T09:10:23;99037.81;;;28.91;89.74
8069;BME280;4077;43.702;24.896;2023-07-20T09:12:49;99021.88;;;28.91;88.50
8069;BME280;4077;43.702;24.896;2023-07-20T09:15:15;99020.41;;;28.74;86.02
8069;BME280;4077;43.702;24.896;2023-07-20T09:17:46;99002.44;;;28.77;85.92
8069;BME280;4077;43.702;24.896;2023-07-20T09:23:15;98979.28;;;29.16;78.46
8069;BME280;4077;43.702;24.896;2023-07-20T09:25:40;98979.06;;;29.19;83.88
8069;BME280;4077;43.702;24.896;2023-07-20T09:28:06;98964.09;;;29.18;79.38
8069;BME280;4077;43.702;24.896;2023-07-20T09:30:31;98974.13;;;29.50;77.75
8069;BME280;4077;43.702;24.896;2023-07-20T09:32:57;98977.91;;;29.82;77.87
8069;BME280;4077;43.702;24.896;2023-07-20T09:35:24;98987.97;;;30.36;76.10
8069;BME280;4077;43.702;24.896;2023-07-20T09:37:51;98994.00;;;30.61;72.29
8069;BME280;4077;43.702;24.896;2023-07-20T09:40:20;98978.28;;;30.91;70.27
8069;BME280;4077;43.702;24.896;2023-07-20T09:42:47;98973.19;;;30.88;67.39
8069;BME280;4077;43.702;24.896;2023-07-20T09:45:13;98993.94;;;31.71;65.06
8069;BME280;4077;43.702;24.896;2023-07-20T09:47:39;99000.41;;;31.25;64.36
8069;BME280;4077;43.702;24.896;2023-07-20T09:50:07;98997.16;;;30.88;65.20
8069;BME280;4077;43.702;24.896;2023-07-20T09:52:39;99007.78;;;31.22;65.53
8069;BME280;4077;43.702;24.896;2023-07-20T09:55:10;99024.78;;;31.32;62.84
8069;BME280;4077;43.702;24.896;2023-07-20T09:57:37;99010.50;;;30.99;62.76
8069;BME280;4077;43.702;24.896;2023-07-20T10:00:04;99000.47;;;30.69;63.72
8069;BME280;4077;43.702;24.896;2023-07-20T10:02:44;98990.75;;;30.57;63.70
8069;BME280;4077;43.702;24.896;2023-07-20T10:05:12;98993.88;;;30.40;67.47
8069;BME280;4077;43.702;24.896;2023-07-20T10:07:46;99000.69;;;30.44;66.43
8069;BME280;4077;43.702;24.896;2023-07-20T10:10:17;98991.59;;;30.35;65.53
8069;BME280;4077;43.702;24.896;2023-07-20T10:12:44;98990.28;;;30.06;65.82
8069;BME280;4077;43.702;24.896;2023-07-20T10:17:56;98985.69;;;29.37;72.53
8069;BME280;4077;43.702;24.896;2023-07-20T10:20:23;98977.81;;;29.12;70.44
8069;BME280;4077;43.702;24.896;2023-07-20T10:22:53;98988.38;;;29.01;71.78
8069;BME280;4077;43.702;24.896;2023-07-20T10:25:20;98988.03;;;28.56;75.57
8069;BME280;4077;43.702;24.896;2023-07-20T10:27:48;98989.00;;;28.42;77.00
8069;BME280;4077;43.702;24.896;2023-07-20T10:30:13;98976.66;;;28.28;79.09
8069;BME280;4077;43.702;24.896;2023-07-20T10:32:40;98955.97;;;28.21;79.80
8069;BME280;4077;43.702;24.896;2023-07-20T10:35:15;98934.84;;;27.94;83.07
8069;BME280;4077;43.702;24.896;2023-07-20T10:38:00;98930.47;;;27.93;79.41
8069;BME280;4077;43.702;24.896;2023-07-20T10:40:33;98934.81;;;27.68;94.37
8069;BME280;4077;43.702;24.896;2023-07-20T10:43:02;98921.78;;;27.51;100.00
8069;BME280;4077;43.702;24.896;2023-07-20T10:45:49;98909.72;;;27.60;100.00
8069;BME280;4077;43.702;24.896;2023-07-20T10:48:20;98904.94;;;27.65;100.00
8069;BME280;4077;43.702;24.896;2023-07-20T10:51:19;98893.53;;;27.90;100.00
8069;BME280;4077;43.702;24.896;2023-07-20T10:53:48;98900.66;;;28.02;100.00
8069;BME280;4077;43.702;24.896;2023-07-20T10:56:15;98899.56;;;28.17;91.39
8069;BME280;4077;43.702;24.896;2023-07-20T10:58:44;98897.03;;;28.16;88.65
8069;BME280;4077;43.702;24.896;2023-07-20T11:01:13;98898.41;;;28.21;86.79
8069;BME280;4077;43.702;24.896;2023-07-20T11:03:39;98899.38;;;28.07;88.51
8069;BME280;4077;43.702;24.896;2023-07-20T11:08:55;98903.25;;;28.27;87.02
8069;BME280;4077;43.702;24.896;2023-07-20T11:11:29;98896.38;;;28.38;81.75
8069;BME280;4077;43.702;24.896;2023-07-20T11:16:46;98907.97;;;28.37;86.10
8069;BME280;4077;43.702;24.896;2023-07-20T11:19:17;98901.38;;;28.42;86.17
8069;BME280;4077;43.702;24.896;2023-07-20T11:21:44;98890.22;;;28.50;87.71
8069;BME280;4077;43.702;24.896;2023-07-20T11:24:10;98891.25;;;28.47;83.53
8069;BME280;4077;43.702;24.896;2023-07-20T11:26:42;98893.13;;;28.71;86.54
8069;BME280;4077;43.702;24.896;2023-07-20T11:29:08;98900.53;;;28.78;81.92
8069;BME280;4077;43.702;24.896;2023-07-20T11:31:38;98902.66;;;28.73;81.87
8069;BME280;4077;43.702;24.896;2023-07-20T11:34:04;98898.47;;;28.58;86.54
8069;BME280;4077;43.702;24.896;2023-07-20T11:36:29;98897.66;;;28.45;85.56
8069;BME280;4077;43.702;24.896;2023-07-20T11:38:55;98890.22;;;28.37;81.55
8069;BME280;4077;43.702;24.896;2023-07-20T11:41:20;98898.63;;;28.31;81.55
8069;BME280;4077;43.702;24.896;2023-07-20T11:43:47;98903.19;;;28.42;81.01
8069;BME280;4077;43.702;24.896;2023-07-20T11:46:12;98892.03;;;28.37;81.70
8069;BME280;4077;43.702;24.896;2023-07-20T11:48:38;98896.13;;;28.53;78.73
8069;BME280;4077;43.702;24.896;2023-07-20T11:51:05;98897.78;;;28.67;76.04
8069;BME280;4077;43.702;24.896;2023-07-20T11:53:31;98898.00;;;28.77;72.29
8069;BME280;4077;43.702;24.896;2023-07-20T11:55:58;98904.41;;;28.98;70.77
8069;BME280;4077;43.702;24.896;2023-07-20T11:58:24;98899.53;;;29.16;69.11
8069;BME280;4077;43.702;24.896;2023-07-20T12:00:49;98898.03;;;29.25;67.69
8069;BME280;4077;43.702;24.896;2023-07-20T12:03:15;98884.34;;;29.18;69.46
8069;BME280;4077;43.702;24.896;2023-07-20T12:05:41;98887.13;;;29.28;69.00
8069;BME280;4077;43.702;24.896;2023-07-20T12:08:07;98886.53;;;29.24;68.63
8069;BME280;4077;43.702;24.896;2023-07-20T12:10:43;98877.72;;;29.24;62.31
8069;BME280;4077;43.702;24.896;2023-07-20T12:13:10;98879.34;;;29.37;63.35
8069;BME280;4077;43.702;24.896;2023-07-20T12:15:37;98868.44;;;29.40;65.96
8069;BME280;4077;43.702;24.896;2023-07-20T12:18:03;98878.38;;;29.38;65.85
8069;BME280;4077;43.702;24.896;2023-07-20T12:20:33;98872.88;;;29.53;65.72
8069;BME280;4077;43.702;24.896;2023-07-20T12:23:05;98863.84;;;29.42;64.77
8069;BME280;4077;43.702;24.896;2023-07-20T12:25:36;98865.38;;;29.58;64.19
8069;BME280;4077;43.702;24.896;2023-07-20T12:28:17;98856.69;;;29.67;63.71
8069;BME280;4077;43.702;24.896;2023-07-20T12:30:44;98855.25;;;29.74;61.41
8069;BME280;4077;43.702;24.896;2023-07-20T12:33:10;98861.06;;;29.79;58.06
8069;BME280;4077;43.702;24.896;2023-07-20T12:35:37;98855.13;;;29.76;60.07
8069;BME280;4077;43.702;24.896;2023-07-20T12:38:02;98855.22;;;29.63;59.60
8069;BME280;4077;43.702;24.896;2023-07-20T12:40:28;98858.38;;;29.68;59.92
8069;BME280;4077;43.702;24.896;2023-07-20T12:42:53;98848.00;;;29.76;60.10
8069;BME280;4077;43.702;24.896;2023-07-20T12:45:19;98852.22;;;29.90;59.17
8069;BME280;4077;43.702;24.896;2023-07-20T12:47:44;98846.22;;;29.99;57.33
8069;BME280;4077;43.702;24.896;2023-07-20T12:50:10;98841.47;;;29.91;57.04
8069;BME280;4077;43.702;24.896;2023-07-20T12:52:37;98839.28;;;29.96;57.21
8069;BME280;4077;43.702;24.896;2023-07-20T12:55:04;98838.00;;;30.13;55.17
8069;BME280;4077;43.702;24.896;2023-07-20T12:57:30;98830.38;;;30.20;54.83
8069;BME280;4077;43.702;24.896;2023-07-20T12:59:55;98842.59;;;30.22;52.45
8069;BME280;4077;43.702;24.896;2023-07-20T13:02:20;98835.44;;;30.34;51.45
8069;BME280;4077;43.702;24.896;2023-07-20T13:04:46;98825.28;;;30.28;48.60
8069;BME280;4077;43.702;24.896;2023-07-20T13:07:14;98832.41;;;30.16;49.12
8069;BME280;4077;43.702;24.896;2023-07-20T13:09:39;98830.09;;;30.01;49.95
8069;BME280;4077;43.702;24.896;2023-07-20T13:12:05;98825.50;;;29.80;50.04
8069;BME280;4077;43.702;24.896;2023-07-20T13:14:30;98820.16;;;29.69;52.77
8069;BME280;4077;43.702;24.896;2023-07-20T13:16:56;98826.47;;;29.68;52.96
8069;BME280;4077;43.702;24.896;2023-07-20T13:19:22;98813.66;;;29.73;54.16
8069;BME280;4077;43.702;24.896;2023-07-20T13:21:47;98821.13;;;29.68;53.77
8069;BME280;4077;43.702;24.896;2023-07-20T13:24:13;98821.38;;;29.76;52.65
8069;BME280;4077;43.702;24.896;2023-07-20T13:26:38;98817.13;;;29.62;52.25